Kezdőlap
METAR-TAF:

METAR-TAF

Repülőterek :

Kalkutta, India

földrajzi szélesség: 22-39N, földrajzi hosszúság: 088-27E, magasság: 4 m

Jelenlegi meteorológiai megfigyelések

A jelentés 15 perccel ezelõtt készült, 17:00 UTC
Dél-délkeleti szél 5 kt
Hőmérséklet 29°C
Páratartalom 89%
Légköri nyomás 998 hPa
Látótávolság: 3200 m
Kevés felhő 2000 lábon
Száraz légköri homály

METAR: VECC 171700Z 16005KT 3200 HZ FEW020 29/27 Q0998 BECMG 3000 HZ

Idő: 22:45 (17:15 UTC)

Előrejelzés

A jelentés 3 órával és 15 perccel ezelõtt készült, 14:00 UTC
Az előrejelzés 17-én 15 óra UTC és 17-én 24 óra UTC között érvényes
Dél-délkeleti szél 6 kt
Látótávolság: 3200 m
Szórványos felhőzet 2000 lábon
Szórványos felhőzet 10000 lábon
Száraz légköri homály
17-én 22 óra UTC és 17-én 24 óra UTC között fokozatosan kialakuló
Látótávolság: 2800 m
Száraz légköri homály

TAF: VECC 171400Z 1715/1724 15006KT 3200 HZ SCT020 SCT100 BECMG 1722/1724 2800 HZ

Meteorológiai megfigyelések és előrejelzések több, mint 4000 repülőtéren (METAR és TAF jelentéseket).

A térképen piros és sárga pontok jelzik az elérhető meteorológiai állomásokat.

Mozgassa az egeret a pont fölött, hogy megjelenjen az állomás neve.

Azután kattintson az időjárási megfigyelések és előrejelzések megtekintéséhez.

A térkép megváltoztatása: kattintson a fekete keresztel jelölt zöld gombra ráközelítéshez, a vonallal jelölt zöld gombra távolításhoz, vagy a zöld nyilakra a szomszédos térképek eléréséhez.


METAR-TAF: